Portada
METAR-TAF:

METAR-TAF

Aeropuertos :

Aeropuerto de Bíldudalur

Bíldudalur, Islandia

latitud: 65-38-30N, longitud: 23-32-45W, altitud: 8 m

Observación

El informe se hizo hace 1 hora y 54 minutos, a las 14:00 UTC
Viento 1 kt con dirección variable
Temperatura 5°C
Humedad 70%
Presión 991 hPa
Visibilidad 10 km o más
Nubes dispersas a una altura de 2500 ft
Cielo nuboso a una altura de 3500 ft
chaparrones en las proximidades,

METAR: BIBD 041400Z VRB01KT 9999 VCSH SCT025 BKN035 05/M00 Q0991

Hora: 15:54 (15:54 UTC)

Pronóstico

El informe se hizo hace 2 horas y 51 minutos, a las 13:03 UTC
Pronóstico válido del 04 a las 14 UTC al 04 a las 20 UTC
Viento 8 kt del este-sureste
Visibilidad 10 km o más
Cielo nuboso a una altura de 2500 ft
lluvia ligera
Evolucionando progresivamente
del 04 a las 15 UTC al 04 a las 17 UTC
Viento 10 kt del sur

TAF: BIBD 041303Z 0414/0420 11008KT 9999 -RA BKN025 BECMG 0415/0417 17010KT

Observaciones y pronósticos meteorológicos de más de 4000 aeropuertos (mensajes METAR y TAF).

Los puntos amarillos y rojos representan las estaciones disponibles.

Ponga el ratón en el punto deseado para ver el nombre de la estación.

Haga clic para ver las observaciones y los pronósticos meteorológicos.

Para cambiar el mapa : haga clic en los botones verdes con una cruz de color negro para hacer un zoom, en el botón verde con un guión para alejar o en las flechas verdes para mapas adyacentes.


METAR-TAF: